sensor_id;sensor_type;location;lat;lon;timestamp;pressure;altitude;pressure_sealevel;temperature;humidity
77749;BME280;66938;52.084;5.228;2023-10-19T00:02:50;99362.0;;;12.71;89.07
77749;BME280;66938;52.084;5.228;2023-10-19T00:04:27;99355.0;;;12.66;89.48
77749;BME280;66938;52.084;5.228;2023-10-19T00:06:03;99353.0;;;12.71;89.25
77749;BME280;66938;52.084;5.228;2023-10-19T00:09:15;99351.0;;;12.77;89.08
77749;BME280;66938;52.084;5.228;2023-10-19T00:10:53;99352.0;;;12.66;89.36
77749;BME280;66938;52.084;5.228;2023-10-19T00:12:29;99356.0;;;12.66;89.7
77749;BME280;66938;52.084;5.228;2023-10-19T00:15:43;99358.0;;;12.89;89.12
77749;BME280;66938;52.084;5.228;2023-10-19T00:17:19;99349.0;;;12.93;88.92
77749;BME280;66938;52.084;5.228;2023-10-19T00:18:55;99351.0;;;12.91;89.08
77749;BME280;66938;52.084;5.228;2023-10-19T00:20:31;99346.0;;;12.96;89.12
77749;BME280;66938;52.084;5.228;2023-10-19T00:23:45;99347.0;;;13.01;89.1
77749;BME280;66938;52.084;5.228;2023-10-19T00:25:21;99348.0;;;12.98;89.2
77749;BME280;66938;52.084;5.228;2023-10-19T00:26:57;99342.0;;;13.0;89.24
77749;BME280;66938;52.084;5.228;2023-10-19T00:30:10;99333.0;;;12.97;89.62
77749;BME280;66938;52.084;5.228;2023-10-19T00:31:46;99339.0;;;13.03;89.31
77749;BME280;66938;52.084;5.228;2023-10-19T00:33:22;99341.0;;;13.02;89.53
77749;BME280;66938;52.084;5.228;2023-10-19T00:36:34;99341.0;;;12.96;89.69
77749;BME280;66938;52.084;5.228;2023-10-19T00:38:11;99341.0;;;13.06;89.43
77749;BME280;66938;52.084;5.228;2023-10-19T00:39:47;99342.0;;;13.09;89.43
77749;BME280;66938;52.084;5.228;2023-10-19T00:43:03;99346.0;;;13.04;89.64
77749;BME280;66938;52.084;5.228;2023-10-19T00:44:39;99341.0;;;13.07;89.5
77749;BME280;66938;52.084;5.228;2023-10-19T00:46:17;99340.0;;;13.04;89.69
77749;BME280;66938;52.084;5.228;2023-10-19T00:47:54;99336.0;;;13.07;89.69
77749;BME280;66938;52.084;5.228;2023-10-19T00:51:07;99326.0;;;13.12;89.67
77749;BME280;66938;52.084;5.228;2023-10-19T00:52:43;99317.0;;;13.12;89.84
77749;BME280;66938;52.084;5.228;2023-10-19T00:54:23;99325.0;;;13.21;89.55
77749;BME280;66938;52.084;5.228;2023-10-19T00:57:40;99326.0;;;13.19;89.62
77749;BME280;66938;52.084;5.228;2023-10-19T00:59:19;99327.0;;;13.19;89.86
77749;BME280;66938;52.084;5.228;2023-10-19T01:00:55;99328.0;;;13.25;89.73
77749;BME280;66938;52.084;5.228;2023-10-19T01:02:31;99319.0;;;13.22;89.96
77749;BME280;66938;52.084;5.228;2023-10-19T01:05:44;99319.0;;;13.32;89.69
77749;BME280;66938;52.084;5.228;2023-10-19T01:07:20;99320.0;;;13.34;89.63
77749;BME280;66938;52.084;5.228;2023-10-19T01:08:56;99317.0;;;13.38;89.76
77749;BME280;66938;52.084;5.228;2023-10-19T01:12:08;99320.0;;;13.35;89.92
77749;BME280;66938;52.084;5.228;2023-10-19T01:13:44;99319.0;;;13.4;89.85
77749;BME280;66938;52.084;5.228;2023-10-19T01:15:21;99317.0;;;13.45;89.77
77749;BME280;66938;52.084;5.228;2023-10-19T01:16:58;99315.0;;;13.47;89.92
77749;BME280;66938;52.084;5.228;2023-10-19T01:20:12;99311.0;;;13.5;89.83
77749;BME280;66938;52.084;5.228;2023-10-19T01:21:49;99308.0;;;13.51;89.83
77749;BME280;66938;52.084;5.228;2023-10-19T01:23:26;99309.0;;;13.57;89.84
77749;BME280;66938;52.084;5.228;2023-10-19T01:26:40;99310.0;;;13.53;90.1
77749;BME280;66938;52.084;5.228;2023-10-19T01:28:17;99309.0;;;13.62;90.06
77749;BME280;66938;52.084;5.228;2023-10-19T01:29:53;99308.0;;;13.69;89.87
77749;BME280;66938;52.084;5.228;2023-10-19T01:33:05;99311.0;;;13.68;89.86
77749;BME280;66938;52.084;5.228;2023-10-19T01:34:41;99309.0;;;13.7;90.11
77749;BME280;66938;52.084;5.228;2023-10-19T01:36:17;99308.0;;;13.76;89.92
77749;BME280;66938;52.084;5.228;2023-10-19T01:37:54;99315.0;;;13.72;90.15
77749;BME280;66938;52.084;5.228;2023-10-19T01:41:08;99317.0;;;13.78;90.15
77749;BME280;66938;52.084;5.228;2023-10-19T01:42:45;99309.0;;;13.8;90.26
77749;BME280;66938;52.084;5.228;2023-10-19T01:44:21;99312.0;;;13.85;90.13
77749;BME280;66938;52.084;5.228;2023-10-19T01:47:34;99310.0;;;13.86;90.3
77749;BME280;66938;52.084;5.228;2023-10-19T01:49:11;99307.0;;;13.91;90.57
77749;BME280;66938;52.084;5.228;2023-10-19T01:50:46;99306.0;;;13.96;90.59
77749;BME280;66938;52.084;5.228;2023-10-19T01:53:59;99305.0;;;13.97;90.84
77749;BME280;66938;52.084;5.228;2023-10-19T01:55:37;99303.0;;;14.05;90.73
77749;BME280;66938;52.084;5.228;2023-10-19T01:57:13;99295.0;;;14.1;90.74
77749;BME280;66938;52.084;5.228;2023-10-19T01:58:50;99299.0;;;14.12;90.62
77749;BME280;66938;52.084;5.228;2023-10-19T02:02:02;99300.0;;;14.1;91.06
77749;BME280;66938;52.084;5.228;2023-10-19T02:03:38;99301.0;;;14.1;91.24
77749;BME280;66938;52.084;5.228;2023-10-19T02:05:16;99298.0;;;14.1;91.38
77749;BME280;66938;52.084;5.228;2023-10-19T02:08:28;99295.0;;;14.17;91.2
77749;BME280;66938;52.084;5.228;2023-10-19T02:10:05;99295.0;;;14.21;91.19
77749;BME280;66938;52.084;5.228;2023-10-19T02:11:41;99298.0;;;14.18;91.52
77749;BME280;66938;52.084;5.228;2023-10-19T02:14:53;99298.0;;;14.14;92.0
77749;BME280;66938;52.084;5.228;2023-10-19T02:16:29;99294.0;;;14.19;91.98
77749;BME280;66938;52.084;5.228;2023-10-19T02:18:05;99298.0;;;14.18;92.22
77749;BME280;66938;52.084;5.228;2023-10-19T02:21:19;99298.0;;;14.29;91.8
77749;BME280;66938;52.084;5.228;2023-10-19T02:22:55;99302.0;;;14.32;91.9
77749;BME280;66938;52.084;5.228;2023-10-19T02:24:32;99296.0;;;14.37;91.86
77749;BME280;66938;52.084;5.228;2023-10-19T02:26:08;99296.0;;;14.4;91.99
77749;BME280;66938;52.084;5.228;2023-10-19T02:29:21;99287.0;;;14.4;92.56
77749;BME280;66938;52.084;5.228;2023-10-19T02:30:57;99290.0;;;14.46;92.86
77749;BME280;66938;52.084;5.228;2023-10-19T02:32:34;99287.0;;;14.51;92.87
77749;BME280;66938;52.084;5.228;2023-10-19T02:35:48;99284.0;;;14.58;92.93
77749;BME280;66938;52.084;5.228;2023-10-19T02:37:24;99281.0;;;14.66;92.99
77749;BME280;66938;52.084;5.228;2023-10-19T02:39:03;99278.0;;;14.68;93.29
77749;BME280;66938;52.084;5.228;2023-10-19T02:40:39;99278.0;;;14.73;93.32
77749;BME280;66938;52.084;5.228;2023-10-19T02:43:51;99275.0;;;14.82;93.2
77749;BME280;66938;52.084;5.228;2023-10-19T02:45:27;99277.0;;;14.82;93.49
77749;BME280;66938;52.084;5.228;2023-10-19T02:47:04;99280.0;;;14.89;93.67
77749;BME280;66938;52.084;5.228;2023-10-19T02:50:16;99278.0;;;14.92;93.67
77749;BME280;66938;52.084;5.228;2023-10-19T02:51:53;99275.0;;;14.97;93.5
77749;BME280;66938;52.084;5.228;2023-10-19T02:53:29;99276.0;;;15.01;93.42
77749;BME280;66938;52.084;5.228;2023-10-19T02:56:42;99271.0;;;15.02;93.55
77749;BME280;66938;52.084;5.228;2023-10-19T02:58:18;99270.0;;;15.05;93.53
77749;BME280;66938;52.084;5.228;2023-10-19T03:03:08;99271.0;;;15.1;93.32
77749;BME280;66938;52.084;5.228;2023-10-19T03:04:44;99269.0;;;15.15;93.15
77749;BME280;66938;52.084;5.228;2023-10-19T03:06:21;99269.0;;;15.13;93.49
77749;BME280;66938;52.084;5.228;2023-10-19T03:07:57;99268.0;;;15.15;93.2
77749;BME280;66938;52.084;5.228;2023-10-19T03:11:09;99272.0;;;15.14;93.32
77749;BME280;66938;52.084;5.228;2023-10-19T03:12:45;99270.0;;;15.19;93.22
77749;BME280;66938;52.084;5.228;2023-10-19T03:14:21;99269.0;;;15.19;93.5
77749;BME280;66938;52.084;5.228;2023-10-19T03:17:34;99267.0;;;15.19;93.43
77749;BME280;66938;52.084;5.228;2023-10-19T03:19:10;99267.0;;;15.23;93.36
77749;BME280;66938;52.084;5.228;2023-10-19T03:20:46;99260.0;;;15.24;93.08
77749;BME280;66938;52.084;5.228;2023-10-19T03:23:58;99262.0;;;15.31;93.07
77749;BME280;66938;52.084;5.228;2023-10-19T03:25:34;99264.0;;;15.31;93.16
77749;BME280;66938;52.084;5.228;2023-10-19T03:27:12;99261.0;;;15.35;93.14
77749;BME280;66938;52.084;5.228;2023-10-19T03:28:49;99256.0;;;15.3;93.37
77749;BME280;66938;52.084;5.228;2023-10-19T03:32:01;99255.0;;;15.33;93.24
77749;BME280;66938;52.084;5.228;2023-10-19T03:33:37;99253.0;;;15.37;93.28
77749;BME280;66938;52.084;5.228;2023-10-19T03:35:13;99250.0;;;15.35;93.37
77749;BME280;66938;52.084;5.228;2023-10-19T03:38:25;99249.0;;;15.35;93.61
77749;BME280;66938;52.084;5.228;2023-10-19T03:40:02;99245.0;;;15.41;93.5
77749;BME280;66938;52.084;5.228;2023-10-19T03:41:38;99243.0;;;15.39;93.63
77749;BME280;66938;52.084;5.228;2023-10-19T03:44:51;99243.0;;;15.41;93.78
77749;BME280;66938;52.084;5.228;2023-10-19T03:46:27;99246.0;;;15.45;93.61
77749;BME280;66938;52.084;5.228;2023-10-19T03:48:04;99243.0;;;15.49;93.48
77749;BME280;66938;52.084;5.228;2023-10-19T03:49:40;99239.0;;;15.52;93.53
77749;BME280;66938;52.084;5.228;2023-10-19T03:52:52;99234.0;;;15.55;93.34
77749;BME280;66938;52.084;5.228;2023-10-19T03:54:29;99233.0;;;15.62;93.29
77749;BME280;66938;52.084;5.228;2023-10-19T03:56:05;99235.0;;;15.68;93.16
77749;BME280;66938;52.084;5.228;2023-10-19T03:59:17;99241.0;;;15.73;93.02
77749;BME280;66938;52.084;5.228;2023-10-19T04:00:53;99237.0;;;15.73;93.06
77749;BME280;66938;52.084;5.228;2023-10-19T04:02:29;99240.0;;;15.76;92.97
77749;BME280;66938;52.084;5.228;2023-10-19T04:05:41;99234.0;;;15.79;92.9
77749;BME280;66938;52.084;5.228;2023-10-19T04:07:17;99234.0;;;15.87;92.71
77749;BME280;66938;52.084;5.228;2023-10-19T04:08:54;99239.0;;;15.87;92.76
77749;BME280;66938;52.084;5.228;2023-10-19T04:12:06;99234.0;;;15.89;92.59
77749;BME280;66938;52.084;5.228;2023-10-19T04:13:43;99235.0;;;15.87;92.57
77749;BME280;66938;52.084;5.228;2023-10-19T04:15:19;99234.0;;;15.8;92.65
77749;BME280;66938;52.084;5.228;2023-10-19T04:16:55;99233.0;;;15.82;92.46
77749;BME280;66938;52.084;5.228;2023-10-19T04:20:08;99233.0;;;15.72;92.62
77749;BME280;66938;52.084;5.228;2023-10-19T04:21:45;99227.0;;;15.71;92.43
77749;BME280;66938;52.084;5.228;2023-10-19T04:23:22;99230.0;;;15.75;92.12
77749;BME280;66938;52.084;5.228;2023-10-19T04:26:35;99225.0;;;15.73;92.11
77749;BME280;66938;52.084;5.228;2023-10-19T04:28:11;99232.0;;;15.67;91.9
77749;BME280;66938;52.084;5.228;2023-10-19T04:29:47;99230.0;;;15.64;91.82
77749;BME280;66938;52.084;5.228;2023-10-19T04:33:00;99236.0;;;15.65;91.65
77749;BME280;66938;52.084;5.228;2023-10-19T04:34:36;99234.0;;;15.59;91.79
77749;BME280;66938;52.084;5.228;2023-10-19T04:36:13;99235.0;;;15.58;91.64
77749;BME280;66938;52.084;5.228;2023-10-19T04:37:51;99234.0;;;15.53;91.63
77749;BME280;66938;52.084;5.228;2023-10-19T04:41:05;99231.0;;;15.56;91.66
77749;BME280;66938;52.084;5.228;2023-10-19T04:42:41;99234.0;;;15.5;91.78
77749;BME280;66938;52.084;5.228;2023-10-19T04:44:17;99236.0;;;15.48;91.89
77749;BME280;66938;52.084;5.228;2023-10-19T04:47:29;99241.0;;;15.51;91.84
77749;BME280;66938;52.084;5.228;2023-10-19T04:49:05;99244.0;;;15.54;91.77
77749;BME280;66938;52.084;5.228;2023-10-19T04:50:41;99241.0;;;15.45;92.04
77749;BME280;66938;52.084;5.228;2023-10-19T04:53:53;99243.0;;;15.52;91.82
77749;BME280;66938;52.084;5.228;2023-10-19T04:55:30;99245.0;;;15.53;91.65
77749;BME280;66938;52.084;5.228;2023-10-19T04:57:06;99243.0;;;15.52;91.51
77749;BME280;66938;52.084;5.228;2023-10-19T04:58:43;99242.0;;;15.49;91.76
77749;BME280;66938;52.084;5.228;2023-10-19T05:01:55;99241.0;;;15.47;91.88
77749;BME280;66938;52.084;5.228;2023-10-19T05:03:31;99245.0;;;15.48;91.91
77749;BME280;66938;52.084;5.228;2023-10-19T05:05:08;99250.0;;;15.49;91.9
77749;BME280;66938;52.084;5.228;2023-10-19T05:08:20;99249.0;;;15.47;92.12
77749;BME280;66938;52.084;5.228;2023-10-19T05:09:57;99247.0;;;15.46;92.17
77749;BME280;66938;52.084;5.228;2023-10-19T05:11:33;99251.0;;;15.48;92.1
77749;BME280;66938;52.084;5.228;2023-10-19T05:14:45;99253.0;;;15.5;92.06
77749;BME280;66938;52.084;5.228;2023-10-19T05:16:21;99260.0;;;15.55;91.92
77749;BME280;66938;52.084;5.228;2023-10-19T05:17:57;99261.0;;;15.55;91.83
77749;BME280;66938;52.084;5.228;2023-10-19T05:21:10;99262.0;;;15.55;92.04
77749;BME280;66938;52.084;5.228;2023-10-19T05:22:47;99263.0;;;15.58;91.93
77749;BME280;66938;52.084;5.228;2023-10-19T05:24:23;99257.0;;;15.58;91.79
77749;BME280;66938;52.084;5.228;2023-10-19T05:26:01;99258.0;;;15.59;91.78
77749;BME280;66938;52.084;5.228;2023-10-19T05:29:13;99257.0;;;15.58;92.03
77749;BME280;66938;52.084;5.228;2023-10-19T05:30:50;99258.0;;;15.62;91.7
77749;BME280;66938;52.084;5.228;2023-10-19T05:32:26;99267.0;;;15.63;91.51
77749;BME280;66938;52.084;5.228;2023-10-19T05:35:38;99269.0;;;15.58;91.85
77749;BME280;66938;52.084;5.228;2023-10-19T05:37:14;99266.0;;;15.62;91.74
77749;BME280;66938;52.084;5.228;2023-10-19T05:38:50;99273.0;;;15.62;91.63
77749;BME280;66938;52.084;5.228;2023-10-19T05:42:03;99267.0;;;15.63;91.49
77749;BME280;66938;52.084;5.228;2023-10-19T05:43:39;99272.0;;;15.63;91.57
77749;BME280;66938;52.084;5.228;2023-10-19T05:45:15;99280.0;;;15.63;91.65
77749;BME280;66938;52.084;5.228;2023-10-19T05:46:52;99280.0;;;15.65;91.6
77749;BME280;66938;52.084;5.228;2023-10-19T05:50:05;99280.0;;;15.69;91.33
77749;BME280;66938;52.084;5.228;2023-10-19T05:51:41;99284.0;;;15.67;91.56
77749;BME280;66938;52.084;5.228;2023-10-19T05:53:18;99285.0;;;15.7;91.46
77749;BME280;66938;52.084;5.228;2023-10-19T05:56:30;99284.0;;;15.66;91.57
77749;BME280;66938;52.084;5.228;2023-10-19T05:58:06;99285.0;;;15.66;91.69
77749;BME280;66938;52.084;5.228;2023-10-19T05:59:43;99285.0;;;15.66;91.59
77749;BME280;66938;52.084;5.228;2023-10-19T06:02:55;99281.0;;;15.66;91.62
77749;BME280;66938;52.084;5.228;2023-10-19T06:04:32;99280.0;;;15.66;91.44
77749;BME280;66938;52.084;5.228;2023-10-19T06:06:08;99283.0;;;15.65;91.49
77749;BME280;66938;52.084;5.228;2023-10-19T06:07:45;99283.0;;;15.62;91.64
77749;BME280;66938;52.084;5.228;2023-10-19T06:10:57;99284.0;;;15.64;91.64
77749;BME280;66938;52.084;5.228;2023-10-19T06:12:34;99284.0;;;15.69;91.33
77749;BME280;66938;52.084;5.228;2023-10-19T06:14:10;99282.0;;;15.71;91.25
77749;BME280;66938;52.084;5.228;2023-10-19T06:17:24;99281.0;;;15.71;91.2
77749;BME280;66938;52.084;5.228;2023-10-19T06:19:00;99285.0;;;15.65;91.38
77749;BME280;66938;52.084;5.228;2023-10-19T06:20:36;99282.0;;;15.68;91.17
77749;BME280;66938;52.084;5.228;2023-10-19T06:23:49;99282.0;;;15.73;90.96
77749;BME280;66938;52.084;5.228;2023-10-19T06:25:24;99281.0;;;15.69;91.07
77749;BME280;66938;52.084;5.228;2023-10-19T06:27:01;99287.0;;;15.64;91.52
77749;BME280;66938;52.084;5.228;2023-10-19T06:30:13;99286.0;;;15.69;91.25
77749;BME280;66938;52.084;5.228;2023-10-19T06:31:50;99286.0;;;15.71;91.21
77749;BME280;66938;52.084;5.228;2023-10-19T06:33:26;99284.0;;;15.69;91.32
77749;BME280;66938;52.084;5.228;2023-10-19T06:35:02;99291.0;;;15.72;91.11
77749;BME280;66938;52.084;5.228;2023-10-19T06:38:14;99282.0;;;15.67;91.21
77749;BME280;66938;52.084;5.228;2023-10-19T06:39:50;99287.0;;;15.72;90.98
77749;BME280;66938;52.084;5.228;2023-10-19T06:41:26;99283.0;;;15.75;90.83
77749;BME280;66938;52.084;5.228;2023-10-19T06:44:41;99289.0;;;15.73;90.74
77749;BME280;66938;52.084;5.228;2023-10-19T06:46:17;99298.0;;;15.76;90.63
77749;BME280;66938;52.084;5.228;2023-10-19T06:47:53;99305.0;;;15.73;90.59
77749;BME280;66938;52.084;5.228;2023-10-19T06:51:05;99306.0;;;15.76;90.51
77749;BME280;66938;52.084;5.228;2023-10-19T06:52:42;99307.0;;;15.72;90.59
77749;BME280;66938;52.084;5.228;2023-10-19T06:55:55;99317.0;;;15.65;90.81
77749;BME280;66938;52.084;5.228;2023-10-19T06:59:08;99314.0;;;15.65;90.9
77749;BME280;66938;52.084;5.228;2023-10-19T07:00:44;99318.0;;;15.7;90.81
77749;BME280;66938;52.084;5.228;2023-10-19T07:02:20;99321.0;;;15.66;90.87
77749;BME280;66938;52.084;5.228;2023-10-19T07:05:32;99321.0;;;15.71;90.88
77749;BME280;66938;52.084;5.228;2023-10-19T07:07:09;99324.0;;;15.67;90.99
77749;BME280;66938;52.084;5.228;2023-10-19T07:08:44;99326.0;;;15.7;90.94
77749;BME280;66938;52.084;5.228;2023-10-19T07:11:57;99326.0;;;15.7;90.96
77749;BME280;66938;52.084;5.228;2023-10-19T07:13:33;99327.0;;;15.67;91.0
77749;BME280;66938;52.084;5.228;2023-10-19T07:15:09;99331.0;;;15.7;90.89
77749;BME280;66938;52.084;5.228;2023-10-19T07:16:46;99330.0;;;15.71;91.05
77749;BME280;66938;52.084;5.228;2023-10-19T07:19:58;99331.0;;;15.8;90.72
77749;BME280;66938;52.084;5.228;2023-10-19T07:21:34;99332.0;;;15.82;90.71
77749;BME280;66938;52.084;5.228;2023-10-19T07:26:23;99338.0;;;15.87;90.7
77749;BME280;66938;52.084;5.228;2023-10-19T07:27:59;99330.0;;;15.82;90.93
77749;BME280;66938;52.084;5.228;2023-10-19T07:29:35;99330.0;;;15.83;91.12
77749;BME280;66938;52.084;5.228;2023-10-19T07:32:48;99330.0;;;15.87;90.9
77749;BME280;66938;52.084;5.228;2023-10-19T07:34:24;99334.0;;;15.89;90.71
77749;BME280;66938;52.084;5.228;2023-10-19T07:36:00;99337.0;;;15.92;90.62
77749;BME280;66938;52.084;5.228;2023-10-19T07:39:13;99342.0;;;15.91;90.68
77749;BME280;66938;52.084;5.228;2023-10-19T07:40:49;99340.0;;;15.96;90.65
77749;BME280;66938;52.084;5.228;2023-10-19T07:42:26;99336.0;;;15.9;91.01
77749;BME280;66938;52.084;5.228;2023-10-19T07:44:03;99339.0;;;15.96;90.82
77749;BME280;66938;52.084;5.228;2023-10-19T07:47:16;99338.0;;;15.95;91.06
77749;BME280;66938;52.084;5.228;2023-10-19T07:48:52;99339.0;;;15.97;91.17
77749;BME280;66938;52.084;5.228;2023-10-19T07:50:28;99339.0;;;16.0;91.16
77749;BME280;66938;52.084;5.228;2023-10-19T07:53:40;99336.0;;;15.96;91.06
77749;BME280;66938;52.084;5.228;2023-10-19T07:55:18;99339.0;;;16.07;90.88
77749;BME280;66938;52.084;5.228;2023-10-19T07:56:55;99338.0;;;16.07;90.53
77749;BME280;66938;52.084;5.228;2023-10-19T08:00:08;99341.0;;;16.04;90.78
77749;BME280;66938;52.084;5.228;2023-10-19T08:01:45;99341.0;;;16.11;90.72
77749;BME280;66938;52.084;5.228;2023-10-19T08:03:21;99335.0;;;16.14;90.47
77749;BME280;66938;52.084;5.228;2023-10-19T08:04:57;99342.0;;;16.09;90.72
77749;BME280;66938;52.084;5.228;2023-10-19T08:08:11;99338.0;;;16.14;90.63
77749;BME280;66938;52.084;5.228;2023-10-19T08:09:47;99333.0;;;16.16;90.53
77749;BME280;66938;52.084;5.228;2023-10-19T08:11:23;99332.0;;;16.15;90.78
77749;BME280;66938;52.084;5.228;2023-10-19T08:14:36;99328.0;;;16.22;90.3
77749;BME280;66938;52.084;5.228;2023-10-19T08:16:13;99325.0;;;16.27;90.34
77749;BME280;66938;52.084;5.228;2023-10-19T08:17:50;99326.0;;;16.27;90.31
77749;BME280;66938;52.084;5.228;2023-10-19T08:21:05;99335.0;;;16.27;90.38
77749;BME280;66938;52.084;5.228;2023-10-19T08:22:41;99339.0;;;16.32;90.21
77749;BME280;66938;52.084;5.228;2023-10-19T08:24:18;99338.0;;;16.34;90.17
77749;BME280;66938;52.084;5.228;2023-10-19T08:25:55;99334.0;;;16.36;90.19
77749;BME280;66938;52.084;5.228;2023-10-19T08:29:07;99331.0;;;16.27;90.6
77749;BME280;66938;52.084;5.228;2023-10-19T08:30:44;99331.0;;;16.37;90.21
77749;BME280;66938;52.084;5.228;2023-10-19T08:32:21;99328.0;;;16.38;90.17
77749;BME280;66938;52.084;5.228;2023-10-19T08:35:34;99328.0;;;16.34;90.37
77749;BME280;66938;52.084;5.228;2023-10-19T08:37:11;99327.0;;;16.37;90.33
77749;BME280;66938;52.084;5.228;2023-10-19T08:38:47;99325.0;;;16.38;90.41
77749;BME280;66938;52.084;5.228;2023-10-19T08:42:02;99316.0;;;16.45;90.2
77749;BME280;66938;52.084;5.228;2023-10-19T08:43:38;99316.0;;;16.46;90.09
77749;BME280;66938;52.084;5.228;2023-10-19T08:45:15;99324.0;;;16.45;90.41
77749;BME280;66938;52.084;5.228;2023-10-19T08:46:51;99319.0;;;16.45;90.56
77749;BME280;66938;52.084;5.228;2023-10-19T08:50:05;99322.0;;;16.48;90.68
77749;BME280;66938;52.084;5.228;2023-10-19T08:51:44;99325.0;;;16.56;90.46
77749;BME280;66938;52.084;5.228;2023-10-19T08:53:21;99325.0;;;16.66;90.03
77749;BME280;66938;52.084;5.228;2023-10-19T08:56:34;99326.0;;;16.7;89.94
77749;BME280;66938;52.084;5.228;2023-10-19T08:58:10;99330.0;;;16.73;89.77
77749;BME280;66938;52.084;5.228;2023-10-19T08:59:46;99316.0;;;16.77;89.68
77749;BME280;66938;52.084;5.228;2023-10-19T09:01:23;99320.0;;;16.84;89.54
77749;BME280;66938;52.084;5.228;2023-10-19T09:04:41;99314.0;;;16.82;89.6
77749;BME280;66938;52.084;5.228;2023-10-19T09:06:18;99314.0;;;16.89;89.58
77749;BME280;66938;52.084;5.228;2023-10-19T09:07:54;99316.0;;;16.98;89.49
77749;BME280;66938;52.084;5.228;2023-10-19T09:11:08;99316.0;;;17.09;89.71
77749;BME280;66938;52.084;5.228;2023-10-19T09:12:59;99305.0;;;17.2;89.85
77749;BME280;66938;52.084;5.228;2023-10-19T09:14:36;99302.0;;;17.31;88.94
77749;BME280;66938;52.084;5.228;2023-10-19T09:16:13;99313.0;;;17.39;88.53
77749;BME280;66938;52.084;5.228;2023-10-19T09:19:35;99307.0;;;17.37;88.06
77749;BME280;66938;52.084;5.228;2023-10-19T09:21:16;99303.0;;;17.5;87.7
77749;BME280;66938;52.084;5.228;2023-10-19T09:22:53;99306.0;;;17.47;87.48
77749;BME280;66938;52.084;5.228;2023-10-19T09:24:29;99307.0;;;17.47;87.23
77749;BME280;66938;52.084;5.228;2023-10-19T09:27:42;99313.0;;;17.53;86.89
77749;BME280;66938;52.084;5.228;2023-10-19T09:29:18;99310.0;;;17.52;86.89
77749;BME280;66938;52.084;5.228;2023-10-19T09:30:55;99313.0;;;17.52;86.61
77749;BME280;66938;52.084;5.228;2023-10-19T09:34:08;99309.0;;;17.52;87.25
77749;BME280;66938;52.084;5.228;2023-10-19T09:35:46;99308.0;;;17.62;87.15
77749;BME280;66938;52.084;5.228;2023-10-19T09:37:22;99305.0;;;17.7;86.84
77749;BME280;66938;52.084;5.228;2023-10-19T09:39:00;99302.0;;;17.78;86.7
77749;BME280;66938;52.084;5.228;2023-10-19T09:42:14;99300.0;;;17.84;86.3
77749;BME280;66938;52.084;5.228;2023-10-19T09:43:52;99300.0;;;17.91;85.94
77749;BME280;66938;52.084;5.228;2023-10-19T09:45:30;99289.0;;;17.95;85.87
77749;BME280;66938;52.084;5.228;2023-10-19T09:48:48;99290.0;;;18.04;85.64
77749;BME280;66938;52.084;5.228;2023-10-19T09:50:25;99290.0;;;18.06;85.78
77749;BME280;66938;52.084;5.228;2023-10-19T09:52:02;99287.0;;;18.09;85.07
77749;BME280;66938;52.084;5.228;2023-10-19T09:53:39;99276.0;;;18.07;84.73
77749;BME280;66938;52.084;5.228;2023-10-19T09:57:03;99273.0;;;18.12;84.36
77749;BME280;66938;52.084;5.228;2023-10-19T09:58:48;99281.0;;;18.16;84.51
77749;BME280;66938;52.084;5.228;2023-10-19T10:00:27;99276.0;;;18.14;84.7
77749;BME280;66938;52.084;5.228;2023-10-19T10:02:06;99280.0;;;18.18;84.64
77749;BME280;66938;52.084;5.228;2023-10-19T10:05:57;99280.0;;;18.25;84.7
77749;BME280;66938;52.084;5.228;2023-10-19T10:07:33;99287.0;;;18.21;84.23
77749;BME280;66938;52.084;5.228;2023-10-19T10:09:10;99284.0;;;18.3;83.95
77749;BME280;66938;52.084;5.228;2023-10-19T10:10:46;99280.0;;;18.25;84.23
77749;BME280;66938;52.084;5.228;2023-10-19T10:14:20;99286.0;;;18.3;83.97
77749;BME280;66938;52.084;5.228;2023-10-19T10:15:58;99290.0;;;18.34;84.21
77749;BME280;66938;52.084;5.228;2023-10-19T10:17:36;99291.0;;;18.37;84.34
77749;BME280;66938;52.084;5.228;2023-10-19T10:19:20;99287.0;;;18.45;84.13
77749;BME280;66938;52.084;5.228;2023-10-19T10:21:05;99292.0;;;18.43;84.33
77749;BME280;66938;52.084;5.228;2023-10-19T10:24:17;99288.0;;;18.5;83.67
77749;BME280;66938;52.084;5.228;2023-10-19T10:25:57;99281.0;;;18.52;83.49
77749;BME280;66938;52.084;5.228;2023-10-19T10:27:35;99273.0;;;18.54;82.92
77749;BME280;66938;52.084;5.228;2023-10-19T10:29:13;99266.0;;;18.47;83.36
77749;BME280;66938;52.084;5.228;2023-10-19T10:32:56;99260.0;;;18.41;83.72
77749;BME280;66938;52.084;5.228;2023-10-19T10:34:44;99265.0;;;18.45;83.77
77749;BME280;66938;52.084;5.228;2023-10-19T10:36:21;99268.0;;;18.57;82.5
77749;BME280;66938;52.084;5.228;2023-10-19T10:37:58;99268.0;;;18.55;82.62
77749;BME280;66938;52.084;5.228;2023-10-19T10:41:12;99264.0;;;18.59;82.72
77749;BME280;66938;52.084;5.228;2023-10-19T10:43:04;99263.0;;;18.57;83.02
77749;BME280;66938;52.084;5.228;2023-10-19T10:44:43;99257.0;;;18.62;82.6
77749;BME280;66938;52.084;5.228;2023-10-19T10:46:22;99256.0;;;18.62;82.61
77749;BME280;66938;52.084;5.228;2023-10-19T10:49:48;99257.0;;;18.52;83.19
77749;BME280;66938;52.084;5.228;2023-10-19T10:51:26;99264.0;;;18.52;83.33
77749;BME280;66938;52.084;5.228;2023-10-19T10:53:02;99268.0;;;18.5;83.77
77749;BME280;66938;52.084;5.228;2023-10-19T10:54:40;99260.0;;;18.5;83.6
77749;BME280;66938;52.084;5.228;2023-10-19T10:57:54;99257.0;;;18.61;83.58
77749;BME280;66938;52.084;5.228;2023-10-19T10:59:31;99251.0;;;18.55;83.98
77749;BME280;66938;52.084;5.228;2023-10-19T11:01:07;99240.0;;;18.61;84.05
77749;BME280;66938;52.084;5.228;2023-10-19T11:02:44;99250.0;;;18.63;84.25
77749;BME280;66938;52.084;5.228;2023-10-19T11:06:03;99250.0;;;18.7;84.98
77749;BME280;66938;52.084;5.228;2023-10-19T11:07:40;99243.0;;;18.77;84.72
77749;BME280;66938;52.084;5.228;2023-10-19T11:09:16;99246.0;;;18.88;83.44
77749;BME280;66938;52.084;5.228;2023-10-19T11:12:29;99245.0;;;18.96;83.09
77749;BME280;66938;52.084;5.228;2023-10-19T11:14:09;99241.0;;;19.09;82.56
77749;BME280;66938;52.084;5.228;2023-10-19T11:15:48;99242.0;;;19.18;81.47
77749;BME280;66938;52.084;5.228;2023-10-19T11:17:25;99242.0;;;19.25;81.3
77749;BME280;66938;52.084;5.228;2023-10-19T11:20:39;99248.0;;;19.3;80.55
77749;BME280;66938;52.084;5.228;2023-10-19T11:22:16;99239.0;;;19.43;80.3